88R weather

Spicewood Airport
Spicewood, Texas, United States

Public forecast

Using degrees Fahrenheit for public forecast. Weather courtesy of forecast.io.

Closest aviation weather report (METAR) to Spicewood Airport

Closest report is Lago Vista Tx Rusty Allen Airport, 7.9 nm (14.7 km) E. Retrieved 2019/11/15 14:35 UTC (9 minutes ago):

KRYW 151435Z AUTO 36004KT 10SM CLR 07/01 A3044 RMK AO2 T00650014

Closest aviation forecast (TAF) to Spicewood Airport

Closest forecast is Austin Bergstrom International Airport, 28.9 nm (53.6 km) SE. Retrieved 2019/11/15 12:22 UTC (2 hours ago):

TAF KAUS 151120Z 1512/1618 VRB02KT P6SM SKC FM151500 01006KT P6SM SKC FM160000 VRB02KT P6SM FEW250